createdAt,value
2018-09-27T00:02:52.917Z,19.20
2018-09-27T00:15:47.297Z,19.20
2018-09-27T00:20:57.110Z,19.10
2018-09-27T00:26:07.933Z,19.10
2018-09-27T00:31:17.833Z,19.10
2018-09-27T00:41:37.284Z,19.10
2018-09-27T00:44:13.065Z,19.10
2018-09-27T00:49:23.007Z,19.00
2018-09-27T01:04:51.896Z,19.00
2018-09-27T01:10:01.758Z,19.00
2018-09-27T01:15:11.630Z,19.00
2018-09-27T01:22:56.217Z,19.00
2018-09-27T01:30:40.885Z,18.90
2018-09-27T01:38:26.002Z,18.90
2018-09-27T01:48:45.841Z,18.90
2018-09-27T02:01:40.745Z,18.90
2018-09-27T02:06:50.592Z,18.90
2018-09-27T02:09:25.635Z,18.90
2018-09-27T02:17:10.110Z,19.00
2018-09-27T02:19:45.180Z,19.10
2018-09-27T02:22:20.286Z,19.20
2018-09-27T02:27:30.183Z,19.30
2018-09-27T02:32:40.141Z,19.50
2018-09-27T02:35:15.196Z,19.60
2018-09-27T02:45:35.333Z,20.00
2018-09-27T02:50:45.293Z,20.10
2018-09-27T03:08:49.849Z,20.50
2018-09-27T03:14:00.302Z,20.40
2018-09-27T03:19:10.477Z,20.50
2018-09-27T03:24:20.449Z,20.50
2018-09-27T03:27:00.825Z,20.50
2018-09-27T03:34:45.793Z,20.50
2018-09-27T03:39:55.723Z,20.50
2018-09-27T03:47:40.895Z,20.50
2018-09-27T03:52:50.812Z,20.40
2018-09-27T03:58:00.723Z,20.40
2018-09-27T04:08:20.198Z,20.30
2018-09-27T04:10:55.275Z,20.30
2018-09-27T04:13:30.351Z,20.30
2018-09-27T04:16:05.441Z,20.30
2018-09-27T04:18:40.503Z,20.30
2018-09-27T04:21:15.626Z,20.30
2018-09-27T04:23:50.730Z,20.30
2018-09-27T04:26:25.759Z,20.20
2018-09-27T04:47:04.955Z,20.10
2018-09-27T04:54:49.989Z,20.10
2018-09-27T05:00:00.061Z,20.10
2018-09-27T05:07:44.869Z,20.10
2018-09-27T05:12:54.762Z,20.10
2018-09-27T05:18:04.968Z,20.10
2018-09-27T05:23:15.030Z,20.10
2018-09-27T05:25:50.134Z,20.10
2018-09-27T05:31:00.227Z,20.10
2018-09-27T05:49:04.773Z,20.10
2018-09-27T05:56:49.246Z,20.20
2018-09-27T06:01:59.366Z,20.20
2018-09-27T06:04:34.389Z,20.30
2018-09-27T06:22:38.695Z,20.50
2018-09-27T06:38:07.856Z,20.80
2018-09-27T06:43:17.766Z,21.10
2018-09-27T06:48:28.381Z,21.40
2018-09-27T06:58:48.946Z,21.80
2018-09-27T07:01:24.145Z,21.80
2018-09-27T07:03:59.239Z,21.90
2018-09-27T07:06:34.361Z,22.00
2018-09-27T07:22:05.450Z,22.40
2018-09-27T07:45:20.818Z,22.80
2018-09-27T07:47:55.908Z,22.80
2018-09-27T07:50:31.036Z,22.80
2018-09-27T07:53:06.529Z,22.70
2018-09-27T07:58:16.564Z,22.60
2018-09-27T08:00:51.618Z,22.60
2018-09-27T08:06:01.500Z,22.60
2018-09-27T08:08:36.663Z,22.60
2018-09-27T08:13:46.785Z,22.50
2018-09-27T08:21:31.485Z,22.50
2018-09-27T08:26:41.633Z,22.50
2018-09-27T08:31:51.958Z,22.40
2018-09-27T08:37:01.960Z,22.40
2018-09-27T08:39:37.065Z,22.40
2018-09-27T09:00:16.362Z,22.40
2018-09-27T09:02:51.470Z,22.40
2018-09-27T09:20:56.857Z,22.30
2018-09-27T09:26:06.803Z,22.30
2018-09-27T09:28:42.044Z,22.40
2018-09-27T09:31:17.316Z,22.30
2018-09-27T09:36:27.285Z,22.30
2018-09-27T09:49:21.809Z,22.50
2018-09-27T09:57:06.962Z,22.70
2018-09-27T09:59:42.127Z,22.70
2018-09-27T10:04:51.980Z,22.60
2018-09-27T10:12:37.181Z,22.80
2018-09-27T10:22:57.694Z,22.90
2018-09-27T10:28:07.560Z,22.90
2018-09-27T10:35:53.078Z,22.90
2018-09-27T10:38:28.221Z,22.90
2018-09-27T10:43:38.171Z,22.90
2018-09-27T10:53:59.230Z,22.80
2018-09-27T10:59:09.056Z,22.80
2018-09-27T11:12:04.194Z,22.70
2018-09-27T11:17:14.488Z,22.70
2018-09-27T11:30:14.272Z,22.60
2018-09-27T11:43:09.292Z,22.50
2018-09-27T11:45:44.445Z,22.50
2018-09-27T11:56:04.024Z,22.40
2018-09-27T12:01:14.269Z,22.30
2018-09-27T12:11:35.090Z,22.20
2018-09-27T12:16:45.549Z,22.10
2018-09-27T12:24:30.241Z,22.00
2018-09-27T12:27:05.503Z,22.00
2018-09-27T12:29:40.864Z,22.00
2018-09-27T12:32:16.041Z,21.90
2018-09-27T12:45:10.730Z,21.80
2018-09-27T12:55:31.204Z,21.70
2018-09-27T13:03:16.274Z,21.70
2018-09-27T13:05:51.662Z,21.80
2018-09-27T13:26:31.290Z,21.80
2018-09-27T13:57:29.560Z,21.50
2018-09-27T14:02:39.417Z,21.50
2018-09-27T14:07:49.398Z,21.50
2018-09-27T14:12:59.408Z,21.40
2018-09-27T14:28:29.117Z,21.40
2018-09-27T14:33:39.038Z,21.30
2018-09-27T14:38:49.403Z,21.30
2018-09-27T14:41:24.515Z,21.30
2018-09-27T14:46:34.389Z,21.30
2018-09-27T15:02:03.947Z,21.20
2018-09-27T15:04:39.240Z,21.30
2018-09-27T15:09:49.684Z,21.20
2018-09-27T15:17:35.074Z,21.20
2018-09-27T15:20:10.157Z,21.10
2018-09-27T15:22:45.369Z,21.20
2018-09-27T15:25:20.341Z,21.20
2018-09-27T15:40:50.077Z,21.20
2018-09-27T15:48:34.770Z,21.10
2018-09-27T16:04:04.294Z,21.10
2018-09-27T16:09:14.488Z,21.10
2018-09-27T16:14:24.346Z,21.10
2018-09-27T16:19:34.298Z,21.10
2018-09-27T16:27:18.974Z,21.10
2018-09-27T16:32:28.929Z,21.10
2018-09-27T16:40:13.591Z,21.00
2018-09-27T16:45:24.015Z,21.00
2018-09-27T16:50:34.273Z,21.00
2018-09-27T17:00:54.371Z,21.00
2018-09-27T17:24:08.829Z,20.90
2018-09-27T17:29:18.847Z,20.90
2018-09-27T17:31:53.898Z,20.90
2018-09-27T17:34:29.162Z,20.90
2018-09-27T17:39:39.153Z,20.90
2018-09-27T17:42:14.260Z,20.80
2018-09-27T17:52:33.829Z,20.80
2018-09-27T17:57:43.904Z,20.80
2018-09-27T18:02:53.778Z,20.70
2018-09-27T18:18:24.557Z,20.70
2018-09-27T18:33:55.205Z,20.70
2018-09-27T18:41:43.078Z,20.70
2018-09-27T18:44:18.213Z,20.70
2018-09-27T18:49:27.979Z,20.70
2018-09-27T19:02:23.650Z,20.70
2018-09-27T19:12:43.545Z,20.70
2018-09-27T19:15:18.620Z,20.60
2018-09-27T19:17:53.721Z,20.70
2018-09-27T19:20:28.777Z,20.70
2018-09-27T19:25:38.536Z,20.60
2018-09-27T19:46:17.594Z,20.60
2018-09-27T19:51:27.429Z,20.60
2018-09-27T20:09:31.548Z,20.50
2018-09-27T20:14:41.454Z,20.60
2018-09-27T20:19:51.486Z,20.60
2018-09-27T20:25:01.640Z,20.50
2018-09-27T20:32:46.722Z,20.50
2018-09-27T20:48:16.477Z,20.50
2018-09-27T20:50:51.573Z,20.60
2018-09-27T21:08:55.759Z,20.50
2018-09-27T21:14:05.654Z,20.50
2018-09-27T21:16:41.353Z,20.50
2018-09-27T21:19:16.597Z,20.50
2018-09-27T21:21:52.221Z,20.50
2018-09-27T21:24:27.315Z,20.40
2018-09-27T21:42:31.473Z,20.30
2018-09-27T21:55:26.305Z,20.30
2018-09-27T22:00:36.174Z,20.30
2018-09-27T22:08:20.858Z,20.20
2018-09-27T22:10:55.929Z,20.20
2018-09-27T22:13:31.073Z,20.20
2018-09-27T22:16:06.157Z,20.20
2018-09-27T22:31:36.189Z,20.10
2018-09-27T22:41:55.554Z,20.10
2018-09-27T22:49:40.101Z,20.00
2018-09-27T23:00:00.154Z,20.00
2018-09-27T23:07:44.845Z,20.00
2018-09-27T23:10:20.311Z,20.00
2018-09-27T23:12:55.365Z,20.00
2018-09-27T23:18:05.081Z,19.90
2018-09-27T23:23:15.463Z,19.90
2018-09-27T23:25:50.581Z,19.90
2018-09-27T23:28:25.721Z,19.90
2018-09-27T23:31:01.141Z,19.90
2018-09-27T23:33:36.295Z,19.90
2018-09-27T23:43:56.880Z,19.90
2018-09-27T23:46:31.934Z,19.90
2018-09-27T23:49:07.043Z,19.80
2018-09-27T23:51:42.561Z,19.80
2018-09-27T23:54:17.708Z,19.80
2018-09-27T23:56:52.783Z,19.80
2018-09-27T23:59:27.878Z,19.80
